North Randall, Ohio
Current Conditions -  °F | °C
As of 8:53 AM on Monday 20 Oct 2014 (Local Time) from KBKL Reporting Station
Overcast Overcast  
Wind Chill: 50°   Ceiling: 10000
Heat Index: 50°   Visibility: 10mi
Dew Point: 39°   Wind: 13mph
Humidity: 66%   Direction: 180°S
Pressure: 29.93"   Gusts: NA
Location:  41.4368°N, 81.5396°W
Report Text: KBKL 201253Z 18011KT 10SM OVC100 10/04 A2993 RMK AO2 SLP136 T01000039
Loading
Personal Weather Stations






























Interactive Weather Map
Tropical Storm Tracking
New forecast layout! Learn more

10-Day Weather Forecast

Advertisements
Track Severe Weather on mobile